createdAt,value
2023-05-02T00:01:56.874Z,34.01
2023-05-02T00:04:29.904Z,34.00
2023-05-02T00:07:01.710Z,33.93
2023-05-02T00:09:31.330Z,33.81
2023-05-02T00:12:06.705Z,33.79
2023-05-02T00:14:35.841Z,33.64
2023-05-02T00:17:04.832Z,33.88
2023-05-02T00:19:51.425Z,33.35
2023-05-02T00:22:20.529Z,33.49
2023-05-02T00:24:49.611Z,32.69
2023-05-02T00:27:19.029Z,31.22
2023-05-02T00:29:49.490Z,32.53
2023-05-02T00:32:21.790Z,32.11
2023-05-02T00:34:50.848Z,32.62
2023-05-02T00:37:25.838Z,32.76
2023-05-02T00:39:54.857Z,32.21
2023-05-02T00:42:23.941Z,32.29
2023-05-02T00:44:56.068Z,32.24
2023-05-02T00:47:28.032Z,31.75
2023-05-02T00:49:57.489Z,32.00
2023-05-02T00:52:26.678Z,31.75
2023-05-02T00:54:55.737Z,32.13
2023-05-02T00:57:24.861Z,32.23
2023-05-02T00:59:56.129Z,32.57
2023-05-02T01:02:25.194Z,32.21
2023-05-02T01:05:12.762Z,32.29
2023-05-02T01:08:14.328Z,32.41
2023-05-02T01:10:53.904Z,32.55
2023-05-02T01:13:30.691Z,32.39
2023-05-02T01:16:09.254Z,32.27
2023-05-02T01:18:43.192Z,32.39
2023-05-02T01:21:12.446Z,32.58
2023-05-02T01:24:04.113Z,32.83
2023-05-02T01:26:53.988Z,32.84
2023-05-02T01:29:25.048Z,33.07
2023-05-02T01:31:54.142Z,32.87
2023-05-02T01:34:23.209Z,32.66
2023-05-02T01:36:54.988Z,32.98
2023-05-02T01:39:24.807Z,32.93
2023-05-02T01:41:54.921Z,33.00
2023-05-02T01:44:24.631Z,32.88
2023-05-02T01:46:54.583Z,32.89
2023-05-02T01:49:26.418Z,32.92
2023-05-02T01:51:55.509Z,32.67
2023-05-02T01:54:25.539Z,32.48
2023-05-02T01:56:54.629Z,32.81
2023-05-02T01:59:26.575Z,32.20
2023-05-02T02:02:01.185Z,32.63
2023-05-02T02:04:33.257Z,32.42
2023-05-02T02:07:05.761Z,32.35
2023-05-02T02:09:37.856Z,32.36
2023-05-02T02:12:32.713Z,32.47
2023-05-02T02:15:04.818Z,32.16
2023-05-02T02:17:41.787Z,32.40
2023-05-02T02:20:11.870Z,32.28
2023-05-02T02:22:44.666Z,31.87
2023-05-02T02:25:16.595Z,31.62
2023-05-02T02:27:45.747Z,31.66
2023-05-02T02:30:14.987Z,31.53
2023-05-02T02:32:52.707Z,31.62
2023-05-02T02:35:21.905Z,31.54
2023-05-02T02:38:08.915Z,31.71
2023-05-02T02:40:43.884Z,31.79
2023-05-02T02:43:41.921Z,31.50
2023-05-02T02:46:20.200Z,31.88
2023-05-02T02:48:58.416Z,31.79
2023-05-02T02:51:45.762Z,31.57
2023-05-02T02:54:27.292Z,31.37
2023-05-02T02:57:01.184Z,31.34
2023-05-02T02:59:31.290Z,31.46
2023-05-02T03:02:09.969Z,31.24
2023-05-02T03:04:43.750Z,31.46
2023-05-02T03:07:13.006Z,31.22
2023-05-02T03:09:48.030Z,31.36
2023-05-02T03:12:19.372Z,31.16
2023-05-02T03:14:48.713Z,31.27
2023-05-02T03:17:19.750Z,31.11
2023-05-02T03:19:49.026Z,31.37
2023-05-02T03:22:20.652Z,31.34
2023-05-02T03:25:00.275Z,31.30
2023-05-02T03:27:29.313Z,31.38
2023-05-02T03:29:58.640Z,31.34
2023-05-02T03:32:28.691Z,31.17
2023-05-02T03:35:04.141Z,31.40
2023-05-02T03:37:33.209Z,31.23
2023-05-02T03:40:05.422Z,31.01
2023-05-02T03:42:41.485Z,31.53
2023-05-02T03:45:10.833Z,31.25
2023-05-02T03:47:43.312Z,31.21
2023-05-02T03:50:12.681Z,30.95
2023-05-02T03:52:41.703Z,30.88
2023-05-02T03:55:10.992Z,31.10
2023-05-02T03:57:39.964Z,31.12
2023-05-02T04:00:12.229Z,31.02
2023-05-02T04:02:41.387Z,31.15
2023-05-02T04:05:13.495Z,31.18
2023-05-02T04:07:42.684Z,31.06
2023-05-02T04:10:17.910Z,31.22
2023-05-02T04:12:46.995Z,31.09
2023-05-02T04:15:16.057Z,30.89
2023-05-02T04:17:47.121Z,30.97
2023-05-02T04:20:19.991Z,30.80
2023-05-02T04:22:49.644Z,30.61
2023-05-02T04:25:18.894Z,30.71
2023-05-02T04:27:47.989Z,30.69
2023-05-02T04:30:17.072Z,30.72
2023-05-02T04:32:48.964Z,30.73
2023-05-02T04:35:18.938Z,30.46
2023-05-02T04:37:47.943Z,30.46
2023-05-02T04:40:17.141Z,30.58
2023-05-02T04:42:48.752Z,30.61
2023-05-02T04:45:17.815Z,30.92
2023-05-02T04:47:46.939Z,30.65
2023-05-02T04:50:15.981Z,30.90
2023-05-02T04:52:48.837Z,30.42
2023-05-02T04:55:18.657Z,31.13
2023-05-02T04:57:51.124Z,30.48
2023-05-02T05:00:20.911Z,30.71
2023-05-02T05:02:56.320Z,30.34
2023-05-02T05:05:39.922Z,30.51
2023-05-02T05:08:10.037Z,30.37
2023-05-02T05:10:42.828Z,30.50
2023-05-02T05:13:17.561Z,30.91
2023-05-02T05:15:50.312Z,31.03
2023-05-02T05:18:26.012Z,31.39
2023-05-02T05:20:58.359Z,32.40
2023-05-02T05:23:27.973Z,31.71
2023-05-02T05:26:03.276Z,31.06
2023-05-02T05:28:33.212Z,30.84
2023-05-02T05:31:11.004Z,30.53
2023-05-02T05:33:41.714Z,30.10
2023-05-02T05:36:17.074Z,30.21
2023-05-02T05:38:57.662Z,30.61
2023-05-02T05:41:36.007Z,30.23
2023-05-02T05:44:05.809Z,30.61
2023-05-02T05:46:51.724Z,30.21
2023-05-02T05:49:35.987Z,30.88
2023-05-02T05:52:11.492Z,31.00
2023-05-02T05:54:55.618Z,30.37
2023-05-02T05:57:36.007Z,30.48
2023-05-02T06:00:22.905Z,30.21
2023-05-02T06:03:03.187Z,30.25
2023-05-02T06:05:49.007Z,30.33
2023-05-02T06:08:19.716Z,30.02
2023-05-02T06:11:09.870Z,29.69
2023-05-02T06:13:45.220Z,29.76
2023-05-02T06:16:26.656Z,29.59
2023-05-02T06:18:58.343Z,29.40
2023-05-02T06:21:31.054Z,29.58
2023-05-02T06:24:03.926Z,29.55
2023-05-02T06:26:36.662Z,29.67
2023-05-02T06:29:16.972Z,29.89
2023-05-02T06:31:55.761Z,29.82
2023-05-02T06:56:49.221Z,29.77
2023-05-02T06:59:18.981Z,29.98
2023-05-02T07:01:50.926Z,29.99
2023-05-02T07:04:20.824Z,29.96
2023-05-02T07:06:53.667Z,29.87
2023-05-02T07:09:23.409Z,29.96
2023-05-02T07:11:53.132Z,29.88
2023-05-02T07:14:23.199Z,30.02
2023-05-02T07:16:53.076Z,29.96
2023-05-02T07:19:25.917Z,30.02
2023-05-02T07:21:55.536Z,30.02
2023-05-02T07:24:28.542Z,29.87
2023-05-02T07:27:01.249Z,30.05
2023-05-02T07:29:30.923Z,29.98
2023-05-02T07:32:00.611Z,29.84
2023-05-02T07:34:33.265Z,30.23
2023-05-02T07:37:03.531Z,30.09
2023-05-02T07:39:35.800Z,29.89
2023-05-02T07:42:05.868Z,29.99
2023-05-02T07:44:36.661Z,30.11
2023-05-02T07:47:06.485Z,30.12
2023-05-02T07:49:36.078Z,30.13
2023-05-02T07:52:12.019Z,30.04
2023-05-02T07:54:41.774Z,30.17
2023-05-02T07:57:11.538Z,30.17
2023-05-02T07:59:44.638Z,30.01
2023-05-02T08:02:15.498Z,30.03
2023-05-02T08:04:50.339Z,29.97
2023-05-02T08:07:22.327Z,30.02
2023-05-02T08:09:52.076Z,29.93
2023-05-02T08:12:26.808Z,29.83
2023-05-02T08:15:04.923Z,30.02
2023-05-02T08:17:34.263Z,29.93
2023-05-02T08:20:03.386Z,29.94
2023-05-02T08:22:33.379Z,30.12
2023-05-02T08:25:02.563Z,30.09
2023-05-02T08:27:31.644Z,30.00
2023-05-02T08:30:01.130Z,30.12
2023-05-02T08:32:31.508Z,30.19
2023-05-02T08:35:01.308Z,30.26
2023-05-02T08:37:30.975Z,30.15
2023-05-02T08:40:04.053Z,30.16
2023-05-02T08:42:36.461Z,30.36
2023-05-02T08:45:07.594Z,30.01
2023-05-02T08:47:43.186Z,30.04
2023-05-02T08:50:22.460Z,30.10
2023-05-02T08:52:55.964Z,30.00
2023-05-02T08:55:29.273Z,30.02
2023-05-02T08:58:00.602Z,30.14
2023-05-02T09:00:30.839Z,30.22
2023-05-02T09:03:24.185Z,30.21
2023-05-02T09:05:56.876Z,30.28
2023-05-02T09:08:27.075Z,30.38
2023-05-02T09:10:57.122Z,30.46
2023-05-02T09:13:33.572Z,30.43
2023-05-02T09:16:17.111Z,30.47
2023-05-02T09:18:48.451Z,30.48
2023-05-02T09:21:23.167Z,30.36
2023-05-02T09:23:59.275Z,30.45
2023-05-02T09:26:36.684Z,30.58
2023-05-02T09:29:09.936Z,30.41
2023-05-02T09:34:14.833Z,30.44
2023-05-02T09:36:46.712Z,30.43
2023-05-02T09:39:18.186Z,30.59
2023-05-02T09:41:50.007Z,30.46
2023-05-02T09:44:27.252Z,30.40
2023-05-02T09:47:03.609Z,30.55
2023-05-02T09:49:47.231Z,30.32
2023-05-02T09:52:19.516Z,30.51
2023-05-02T09:54:52.007Z,30.43
2023-05-02T09:57:22.204Z,30.41
2023-05-02T09:59:58.864Z,30.21
2023-05-02T10:02:28.935Z,30.39
2023-05-02T10:05:00.411Z,30.45
2023-05-02T10:07:30.554Z,30.38
2023-05-02T10:10:01.518Z,30.28
2023-05-02T10:12:32.543Z,30.47
2023-05-02T10:15:06.266Z,30.32
2023-05-02T10:17:43.995Z,30.03
2023-05-02T10:20:18.569Z,30.30
2023-05-02T10:22:48.777Z,30.26
2023-05-02T10:25:18.527Z,30.09
2023-05-02T10:27:48.216Z,30.19
2023-05-02T10:30:21.628Z,30.35
2023-05-02T10:32:52.216Z,30.44
2023-05-02T10:35:22.456Z,30.70
2023-05-02T10:37:55.612Z,30.44
2023-05-02T10:40:25.815Z,30.38
2023-05-02T10:42:56.522Z,30.60
2023-05-02T10:45:48.627Z,30.33
2023-05-02T10:48:20.443Z,30.37
2023-05-02T10:50:56.695Z,30.68
2023-05-02T10:53:34.022Z,30.86
2023-05-02T10:56:23.200Z,30.91
2023-05-02T10:58:55.566Z,30.81
2023-05-02T11:01:28.894Z,30.84
2023-05-02T11:04:00.249Z,30.95
2023-05-02T11:06:32.459Z,30.90
2023-05-02T11:09:23.100Z,31.08
2023-05-02T11:11:56.552Z,30.99
2023-05-02T11:14:35.429Z,31.12
2023-05-02T11:17:07.740Z,30.88
2023-05-02T11:19:48.921Z,30.96
2023-05-02T11:22:22.160Z,31.00
2023-05-02T11:24:53.138Z,30.82
2023-05-02T11:27:31.863Z,31.02
2023-05-02T11:30:12.254Z,30.77
2023-05-02T11:32:51.048Z,30.83
2023-05-02T11:35:21.484Z,30.98
2023-05-02T11:38:01.465Z,30.98
2023-05-02T11:40:31.923Z,30.84
2023-05-02T11:43:02.893Z,30.91
2023-05-02T11:45:39.426Z,30.88
2023-05-02T11:48:12.667Z,30.93
2023-05-02T11:50:49.584Z,31.07
2023-05-02T11:53:26.011Z,31.11
2023-05-02T11:56:01.871Z,30.93
2023-05-02T11:58:38.258Z,31.11
2023-05-02T12:01:17.544Z,31.07
2023-05-02T12:03:47.841Z,30.90
2023-05-02T12:06:26.115Z,31.21
2023-05-02T12:09:12.091Z,31.04
2023-05-02T12:11:41.856Z,30.99
2023-05-02T12:14:12.565Z,31.16
2023-05-02T12:16:43.808Z,31.16
2023-05-02T12:19:14.476Z,31.00
2023-05-02T12:21:44.110Z,31.21
2023-05-02T12:24:13.822Z,31.06
2023-05-02T12:26:43.491Z,31.19
2023-05-02T12:29:14.126Z,30.94
2023-05-02T12:31:55.662Z,30.96
2023-05-02T12:34:41.581Z,31.20
2023-05-02T12:37:11.661Z,31.00
2023-05-02T12:39:42.499Z,31.03
2023-05-02T12:42:19.406Z,31.10
2023-05-02T12:44:50.507Z,31.27
2023-05-02T12:47:24.732Z,31.27
2023-05-02T12:50:01.278Z,31.00
2023-05-02T12:52:56.538Z,31.22
2023-05-02T12:55:29.793Z,31.17
2023-05-02T12:58:12.577Z,31.23
2023-05-02T13:00:45.562Z,30.98
2023-05-02T13:03:19.913Z,30.96
2023-05-02T13:06:02.061Z,30.97
2023-05-02T13:08:43.271Z,30.98
2023-05-02T13:11:15.028Z,31.13
2023-05-02T13:13:44.785Z,30.93
2023-05-02T13:16:14.547Z,31.02
2023-05-02T13:18:47.112Z,31.16
2023-05-02T13:21:17.746Z,31.10
2023-05-02T13:23:52.065Z,31.04
2023-05-02T13:26:21.708Z,31.02
2023-05-02T13:28:51.546Z,31.03
2023-05-02T13:31:21.799Z,31.15
2023-05-02T13:33:51.949Z,31.17
2023-05-02T13:36:21.601Z,31.19
2023-05-02T13:38:51.246Z,30.98
2023-05-02T13:41:20.896Z,31.14
2023-05-02T13:43:50.759Z,31.02
2023-05-02T13:46:20.500Z,30.97
2023-05-02T13:48:50.139Z,31.15
2023-05-02T13:51:20.140Z,30.97
2023-05-02T13:53:51.157Z,31.24
2023-05-02T13:56:20.807Z,30.88
2023-05-02T13:58:50.492Z,31.07
2023-05-02T14:01:24.116Z,31.22
2023-05-02T14:03:54.009Z,31.09
2023-05-02T14:06:23.793Z,31.25
2023-05-02T14:08:53.885Z,31.01
2023-05-02T14:11:23.626Z,30.99
2023-05-02T14:13:56.257Z,31.22
2023-05-02T14:16:29.090Z,31.27
2023-05-02T14:18:59.381Z,31.12
2023-05-02T14:21:29.800Z,31.06
2023-05-02T14:23:59.770Z,31.02
2023-05-02T14:26:29.543Z,31.16
2023-05-02T14:29:00.119Z,31.17
2023-05-02T14:31:29.793Z,31.08
2023-05-02T14:33:59.549Z,31.00
2023-05-02T14:36:42.161Z,31.33
2023-05-02T14:39:11.985Z,31.25
2023-05-02T14:41:41.744Z,31.16
2023-05-02T14:44:12.149Z,31.27
2023-05-02T14:46:41.976Z,31.20
2023-05-02T14:49:11.705Z,31.27
2023-05-02T14:51:42.054Z,31.27
2023-05-02T14:54:11.733Z,31.29
2023-05-02T14:56:41.362Z,31.12
2023-05-02T14:59:11.182Z,31.20
2023-05-02T15:01:43.104Z,30.96
2023-05-02T15:04:13.008Z,31.24
2023-05-02T15:06:42.897Z,31.18
2023-05-02T15:09:13.704Z,31.11
2023-05-02T15:11:46.585Z,31.10
2023-05-02T15:14:25.969Z,31.20
2023-05-02T15:16:59.405Z,31.11
2023-05-02T15:19:29.536Z,31.32
2023-05-02T15:21:59.514Z,31.02
2023-05-02T15:24:29.559Z,31.04
2023-05-02T15:26:59.437Z,31.38
2023-05-02T15:29:29.182Z,31.19
2023-05-02T15:31:59.199Z,31.35
2023-05-02T15:34:29.237Z,31.28
2023-05-02T15:37:00.442Z,31.17
2023-05-02T15:39:30.583Z,31.20
2023-05-02T15:42:00.430Z,31.09
2023-05-02T15:44:30.517Z,31.26
2023-05-02T15:47:00.337Z,31.14
2023-05-02T15:49:34.808Z,31.03
2023-05-02T15:52:08.922Z,31.21
2023-05-02T15:54:43.647Z,30.98
2023-05-02T15:57:14.320Z,31.02
2023-05-02T15:59:43.998Z,31.21
2023-05-02T16:02:14.593Z,31.11
2023-05-02T16:04:44.585Z,31.07
2023-05-02T16:07:14.762Z,31.11
2023-05-02T16:09:44.491Z,31.35
2023-05-02T16:12:15.144Z,31.15
2023-05-02T16:14:44.913Z,31.30
2023-05-02T16:17:14.463Z,31.10
2023-05-02T16:19:44.591Z,31.18
2023-05-02T16:22:14.213Z,31.38
2023-05-02T16:24:57.257Z,31.08
2023-05-02T16:27:27.180Z,31.29
2023-05-02T16:29:56.901Z,31.30
2023-05-02T16:32:30.054Z,31.26
2023-05-02T16:34:59.683Z,31.23
2023-05-02T16:37:32.353Z,31.18
2023-05-02T16:40:02.882Z,31.30
2023-05-02T16:42:33.894Z,31.25
2023-05-02T16:45:03.634Z,31.14
2023-05-02T16:47:33.600Z,31.28
2023-05-02T16:50:03.648Z,31.34
2023-05-02T16:52:33.721Z,31.18
2023-05-02T16:55:08.058Z,31.23
2023-05-02T16:57:40.684Z,31.11
2023-05-02T17:00:16.385Z,31.16
2023-05-02T17:02:46.343Z,31.32
2023-05-02T17:07:45.135Z,31.33
2023-05-02T17:10:14.832Z,31.10
2023-05-02T17:12:48.386Z,31.40
2023-05-02T17:17:47.907Z,31.11
2023-05-02T17:20:18.825Z,31.27
2023-05-02T17:22:49.013Z,31.34
2023-05-02T17:25:18.790Z,31.34
2023-05-02T17:27:51.693Z,31.11
2023-05-02T17:30:23.149Z,31.28
2023-05-02T17:32:56.160Z,31.15
2023-05-02T17:35:25.995Z,31.30
2023-05-02T17:37:56.951Z,31.32
2023-05-02T17:40:30.571Z,31.32
2023-05-02T17:43:00.947Z,31.52
2023-05-02T17:45:31.348Z,31.37
2023-05-02T17:48:04.215Z,31.24
2023-05-02T17:50:41.578Z,31.45
2023-05-02T17:53:11.359Z,31.47
2023-05-02T17:55:41.153Z,31.38
2023-05-02T17:58:11.290Z,31.29
2023-05-02T18:00:41.852Z,31.37
2023-05-02T18:03:11.653Z,31.37
2023-05-02T18:05:42.764Z,31.21
2023-05-02T18:08:15.420Z,31.39
2023-05-02T18:10:45.957Z,31.45
2023-05-02T18:13:24.065Z,31.23
2023-05-02T18:16:05.878Z,31.22
2023-05-02T18:18:36.516Z,31.28
2023-05-02T18:21:11.658Z,31.21
2023-05-02T18:23:41.718Z,31.23
2023-05-02T18:26:14.428Z,31.30
2023-05-02T18:28:47.089Z,31.34
2023-05-02T18:31:19.279Z,31.33
2023-05-02T18:33:51.263Z,31.45
2023-05-02T18:36:25.648Z,31.37
2023-05-02T18:38:55.734Z,31.46
2023-05-02T18:41:24.920Z,31.44
2023-05-02T18:43:58.702Z,31.59
2023-05-02T18:46:29.337Z,31.43
2023-05-02T18:48:58.738Z,31.67
2023-05-02T18:51:30.400Z,31.65
2023-05-02T18:53:59.464Z,31.67
2023-05-02T18:56:28.620Z,31.58
2023-05-02T18:58:58.978Z,31.52
2023-05-02T19:01:31.261Z,31.57
2023-05-02T19:04:02.415Z,31.65
2023-05-02T19:06:33.108Z,31.66
2023-05-02T19:09:02.370Z,31.77
2023-05-02T19:11:35.067Z,31.84
2023-05-02T19:14:05.118Z,31.65
2023-05-02T19:16:36.413Z,31.77
2023-05-02T19:19:08.357Z,31.70
2023-05-02T19:21:37.898Z,31.70
2023-05-02T19:24:07.715Z,31.79
2023-05-02T19:26:36.914Z,31.80
2023-05-02T19:29:06.026Z,31.77
2023-05-02T19:31:38.658Z,31.71
2023-05-02T19:34:10.672Z,31.69
2023-05-02T19:36:39.974Z,31.64
2023-05-02T19:39:09.716Z,31.84
2023-05-02T19:41:40.170Z,31.61
2023-05-02T19:44:09.213Z,31.66
2023-05-02T19:46:41.400Z,31.59
2023-05-02T19:49:11.324Z,31.65
2023-05-02T19:51:40.342Z,31.79
2023-05-02T19:54:09.832Z,31.80
2023-05-02T19:56:40.893Z,31.69
2023-05-02T19:59:09.990Z,31.95
2023-05-02T20:01:44.149Z,31.99
2023-05-02T20:04:13.430Z,31.59
2023-05-02T20:06:45.200Z,31.93
2023-05-02T20:09:14.306Z,31.96
2023-05-02T20:11:43.669Z,31.67
2023-05-02T20:14:15.943Z,31.95
2023-05-02T20:16:45.165Z,32.02
2023-05-02T20:19:14.163Z,31.76
2023-05-02T20:21:46.529Z,31.76
2023-05-02T20:24:15.650Z,31.86
2023-05-02T20:26:44.846Z,31.96
2023-05-02T20:29:14.925Z,31.81
2023-05-02T20:31:44.119Z,31.84
2023-05-02T20:34:14.263Z,31.90
2023-05-02T20:36:43.348Z,31.77
2023-05-02T20:39:13.058Z,31.88
2023-05-02T20:41:42.246Z,31.67
2023-05-02T20:44:11.288Z,31.86
2023-05-02T20:46:40.355Z,31.83
2023-05-02T20:49:10.183Z,31.88
2023-05-02T20:51:39.272Z,31.82
2023-05-02T20:54:08.312Z,31.79
2023-05-02T20:56:37.242Z,31.92
2023-05-02T20:59:09.570Z,32.18
2023-05-02T21:01:38.737Z,31.94
2023-05-02T21:04:08.190Z,31.94
2023-05-02T21:06:37.317Z,32.06
2023-05-02T21:09:09.503Z,32.10
2023-05-02T21:11:38.513Z,32.03
2023-05-02T21:14:07.561Z,32.39
2023-05-02T21:16:37.154Z,32.03
2023-05-02T21:19:06.236Z,32.05
2023-05-02T21:21:35.278Z,32.09
2023-05-02T21:24:05.527Z,32.28
2023-05-02T21:26:34.588Z,32.33
2023-05-02T21:29:06.967Z,32.48
2023-05-02T21:31:41.390Z,32.34
2023-05-02T21:34:20.444Z,31.99
2023-05-02T21:36:49.448Z,31.79
2023-05-02T21:39:19.763Z,31.58
2023-05-02T21:41:48.788Z,31.43
2023-05-02T21:44:21.522Z,31.51
2023-05-02T21:46:50.736Z,31.28
2023-05-02T21:49:25.802Z,31.63
2023-05-02T21:52:05.689Z,32.24
2023-05-02T21:55:10.991Z,32.21
2023-05-02T21:57:41.078Z,32.45
2023-05-02T22:00:14.550Z,33.11
2023-05-02T22:02:43.736Z,33.50
2023-05-02T22:05:13.085Z,33.56
2023-05-02T22:07:42.022Z,33.73
2023-05-02T22:10:11.412Z,33.50
2023-05-02T22:12:40.355Z,33.59
2023-05-02T22:15:09.976Z,33.92
2023-05-02T22:17:38.892Z,33.87
2023-05-02T22:20:11.557Z,33.73
2023-05-02T22:22:41.214Z,33.68
2023-05-02T22:25:11.280Z,33.44
2023-05-02T22:27:40.291Z,33.52
2023-05-02T22:30:10.583Z,33.63
2023-05-02T22:32:39.624Z,33.60
2023-05-02T22:35:08.847Z,33.56
2023-05-02T22:37:37.837Z,33.69
2023-05-02T22:40:09.782Z,33.77
2023-05-02T22:42:38.769Z,33.80
2023-05-02T22:45:09.204Z,33.71
2023-05-02T22:47:38.552Z,33.89
2023-05-02T22:50:11.611Z,33.88
2023-05-02T22:52:40.686Z,33.79
2023-05-02T22:55:10.714Z,33.82
2023-05-02T22:57:40.030Z,33.70
2023-05-02T23:00:10.845Z,33.64
2023-05-02T23:02:40.208Z,33.67
2023-05-02T23:05:11.010Z,33.58
2023-05-02T23:07:40.021Z,33.70
2023-05-02T23:10:09.409Z,33.94
2023-05-02T23:12:38.399Z,33.94
2023-05-02T23:15:07.977Z,33.68
2023-05-02T23:17:43.011Z,33.87
2023-05-02T23:20:12.366Z,33.70
2023-05-02T23:22:45.695Z,33.60
2023-05-02T23:25:15.138Z,33.70
2023-05-02T23:27:44.194Z,33.52
2023-05-02T23:30:13.414Z,33.25
2023-05-02T23:32:42.435Z,33.94
2023-05-02T23:35:12.676Z,33.53
2023-05-02T23:37:42.215Z,33.65
2023-05-02T23:40:11.426Z,33.81
2023-05-02T23:42:41.535Z,33.69
2023-05-02T23:45:11.014Z,33.64
2023-05-02T23:47:40.120Z,33.61
2023-05-02T23:50:09.540Z,33.73
2023-05-02T23:52:38.524Z,33.63
2023-05-02T23:55:11.742Z,33.46
2023-05-02T23:57:40.752Z,33.56
